createdAt,value
2022-10-16T00:01:40.994Z,15.00
2022-10-16T00:04:08.193Z,15.20
2022-10-16T00:06:35.205Z,15.10
2022-10-16T00:09:02.406Z,15.20
2022-10-16T00:11:37.561Z,15.10
2022-10-16T00:14:10.140Z,15.30
2022-10-16T00:16:37.489Z,15.10
2022-10-16T00:19:05.414Z,15.20
2022-10-16T00:21:33.152Z,15.20
2022-10-16T00:24:09.256Z,15.10
2022-10-16T00:26:38.201Z,15.00
2022-10-16T00:29:06.875Z,15.10
2022-10-16T00:31:34.242Z,13.20
2022-10-16T00:34:01.582Z,15.20
2022-10-16T00:36:28.733Z,15.10
2022-10-16T00:38:58.540Z,15.20
2022-10-16T00:41:28.058Z,15.30
2022-10-16T00:44:01.551Z,15.20
2022-10-16T00:46:43.396Z,15.20
2022-10-16T00:49:18.711Z,15.20
2022-10-16T00:51:53.735Z,15.30
2022-10-16T00:54:30.617Z,15.20
2022-10-16T00:57:02.578Z,15.20
2022-10-16T00:59:37.375Z,15.00
2022-10-16T01:02:08.974Z,14.60
2022-10-16T01:04:49.554Z,15.20
2022-10-16T01:07:38.357Z,15.10
2022-10-16T01:10:37.014Z,15.20
2022-10-16T01:13:11.569Z,15.20
2022-10-16T01:15:56.679Z,13.80
2022-10-16T01:18:40.996Z,15.20
2022-10-16T01:21:28.052Z,15.20
2022-10-16T01:24:34.926Z,15.20
2022-10-16T01:27:13.757Z,15.10
2022-10-16T01:29:57.277Z,15.20
2022-10-16T01:32:42.542Z,15.10
2022-10-16T01:35:40.923Z,15.10
2022-10-16T01:38:16.172Z,15.10
2022-10-16T01:40:53.247Z,15.10
2022-10-16T01:43:34.853Z,15.20
2022-10-16T01:46:03.068Z,15.20
2022-10-16T01:48:31.155Z,15.30
2022-10-16T01:51:13.541Z,15.30
2022-10-16T01:53:43.046Z,15.20
2022-10-16T01:56:13.129Z,15.20
2022-10-16T01:58:47.334Z,15.20
2022-10-16T02:01:17.875Z,15.20
2022-10-16T02:03:45.988Z,15.10
2022-10-16T02:06:13.671Z,15.10
2022-10-16T02:08:45.015Z,15.30
2022-10-16T02:11:12.904Z,16.10
2022-10-16T02:14:06.119Z,15.20
2022-10-16T02:16:46.020Z,15.20
2022-10-16T02:19:20.502Z,15.20
2022-10-16T02:22:06.189Z,15.10
2022-10-16T02:25:04.200Z,15.00
2022-10-16T02:27:45.884Z,15.10
2022-10-16T02:30:28.960Z,15.20
2022-10-16T02:32:58.918Z,16.00
2022-10-16T02:35:28.107Z,15.20
2022-10-16T02:37:56.617Z,15.20
2022-10-16T02:40:25.344Z,15.20
2022-10-16T02:42:55.011Z,15.00
2022-10-16T02:45:23.228Z,15.10
2022-10-16T02:47:50.234Z,15.00
2022-10-16T02:50:17.734Z,15.10
2022-10-16T02:52:44.812Z,15.20
2022-10-16T02:55:11.867Z,15.10
2022-10-16T02:57:41.212Z,15.00
2022-10-16T03:00:15.868Z,14.90
2022-10-16T03:02:43.191Z,15.10
2022-10-16T03:05:11.458Z,15.10
2022-10-16T03:07:38.725Z,15.10
2022-10-16T03:10:06.645Z,15.00
2022-10-16T03:12:33.875Z,15.00
2022-10-16T03:15:01.055Z,15.00
2022-10-16T03:17:28.438Z,15.00
2022-10-16T03:19:55.664Z,14.90
2022-10-16T03:22:22.718Z,15.10
2022-10-16T03:24:49.661Z,15.00
2022-10-16T03:27:16.678Z,14.90
2022-10-16T03:29:43.713Z,14.90
2022-10-16T03:32:10.789Z,14.90
2022-10-16T03:34:37.760Z,14.90
2022-10-16T03:37:04.768Z,14.80
2022-10-16T03:39:31.745Z,15.10
2022-10-16T03:41:58.734Z,14.80
2022-10-16T03:44:25.706Z,14.80
2022-10-16T03:46:52.745Z,15.70
2022-10-16T03:49:19.788Z,14.80
2022-10-16T03:51:46.890Z,15.00
2022-10-16T03:54:13.959Z,13.80
2022-10-16T03:56:40.921Z,14.90
2022-10-16T03:59:07.912Z,14.90
2022-10-16T04:01:34.943Z,14.90
2022-10-16T04:04:01.938Z,14.80
2022-10-16T04:06:28.982Z,14.90
2022-10-16T04:08:55.995Z,14.80
2022-10-16T04:11:23.222Z,14.80
2022-10-16T04:13:50.179Z,14.80
2022-10-16T04:16:17.157Z,14.90
2022-10-16T04:18:44.264Z,14.80
2022-10-16T04:21:11.342Z,15.50
2022-10-16T04:23:38.349Z,14.80
2022-10-16T04:26:05.344Z,15.80
2022-10-16T04:28:32.368Z,14.80
2022-10-16T04:30:59.337Z,15.00
2022-10-16T04:33:26.574Z,14.80
2022-10-16T04:36:01.882Z,14.80
2022-10-16T04:38:29.625Z,14.80
2022-10-16T04:40:56.910Z,14.80
2022-10-16T04:43:24.025Z,14.80
2022-10-16T04:45:52.001Z,14.60
2022-10-16T04:48:19.784Z,14.70
2022-10-16T04:50:51.658Z,14.70
2022-10-16T04:53:22.511Z,14.70
2022-10-16T04:55:49.448Z,14.70
2022-10-16T04:58:16.417Z,14.60
2022-10-16T05:00:43.497Z,14.60
2022-10-16T05:03:10.669Z,14.50
2022-10-16T05:05:38.015Z,14.70
2022-10-16T05:08:05.153Z,14.70
2022-10-16T05:10:32.233Z,14.60
2022-10-16T05:12:59.385Z,14.70
2022-10-16T05:15:26.353Z,14.70
2022-10-16T05:17:55.059Z,14.70
2022-10-16T05:20:23.435Z,14.70
2022-10-16T05:22:50.467Z,16.00
2022-10-16T05:25:17.590Z,14.60
2022-10-16T05:27:44.552Z,14.30
2022-10-16T05:30:12.568Z,14.70
2022-10-16T05:32:42.799Z,14.70
2022-10-16T05:35:12.529Z,14.60
2022-10-16T05:37:39.850Z,14.70
2022-10-16T05:40:07.744Z,14.70
2022-10-16T05:42:35.041Z,15.70
2022-10-16T05:45:02.128Z,16.30
2022-10-16T05:47:29.330Z,14.70
2022-10-16T05:49:56.885Z,14.60
2022-10-16T05:52:23.870Z,14.70
2022-10-16T05:54:50.922Z,14.50
2022-10-16T05:57:17.869Z,14.60
2022-10-16T05:59:44.836Z,14.50
2022-10-16T06:02:15.442Z,14.60
2022-10-16T06:04:42.387Z,15.80
2022-10-16T06:07:09.442Z,14.60
2022-10-16T06:09:36.523Z,14.50
2022-10-16T06:12:03.687Z,14.60
2022-10-16T06:14:30.722Z,14.60
2022-10-16T06:16:57.665Z,14.60
2022-10-16T06:19:24.713Z,14.50
2022-10-16T06:21:51.720Z,14.60
2022-10-16T06:24:18.745Z,14.60
2022-10-16T06:26:45.757Z,14.70
2022-10-16T06:29:12.754Z,14.60
2022-10-16T06:31:40.678Z,14.60
2022-10-16T06:34:12.362Z,14.60
2022-10-16T06:36:40.261Z,14.70
2022-10-16T06:39:08.307Z,14.50
2022-10-16T06:41:35.909Z,14.60
2022-10-16T06:44:15.479Z,14.60
2022-10-16T06:46:42.634Z,14.60
2022-10-16T06:49:09.790Z,14.60
2022-10-16T06:51:43.129Z,14.70
2022-10-16T06:54:10.700Z,14.60
2022-10-16T06:56:37.789Z,14.60
2022-10-16T06:59:05.247Z,14.50
2022-10-16T07:01:33.468Z,14.50
2022-10-16T07:04:02.012Z,14.50
2022-10-16T07:06:34.269Z,14.70
2022-10-16T07:09:07.047Z,14.70
2022-10-16T07:11:34.606Z,14.70
2022-10-16T07:14:01.779Z,14.40
2022-10-16T07:16:31.815Z,14.50
2022-10-16T07:19:01.513Z,14.60
2022-10-16T07:21:36.126Z,14.50
2022-10-16T07:24:04.838Z,14.50
2022-10-16T07:26:34.954Z,14.60
2022-10-16T07:29:02.490Z,14.70
2022-10-16T07:31:29.773Z,14.50
2022-10-16T07:33:59.464Z,14.60
2022-10-16T07:36:26.509Z,14.60
2022-10-16T07:38:57.054Z,14.70
2022-10-16T07:41:27.381Z,14.70
2022-10-16T07:43:55.591Z,14.70
2022-10-16T07:46:24.716Z,14.80
2022-10-16T07:48:51.798Z,14.70
2022-10-16T07:51:22.464Z,14.50
2022-10-16T07:53:50.596Z,15.00
2022-10-16T07:56:18.788Z,15.40
2022-10-16T07:58:46.669Z,14.90
2022-10-16T08:01:16.487Z,14.90
2022-10-16T08:03:50.688Z,14.90
2022-10-16T08:06:21.941Z,14.90
2022-10-16T08:08:52.297Z,14.80
2022-10-16T08:11:19.288Z,15.00
2022-10-16T08:13:46.310Z,14.90
2022-10-16T08:16:13.482Z,14.90
2022-10-16T08:18:41.829Z,15.10
2022-10-16T08:21:20.205Z,15.10
2022-10-16T08:23:53.065Z,15.20
2022-10-16T08:26:27.335Z,15.20
2022-10-16T08:28:55.582Z,15.20
2022-10-16T08:31:23.187Z,15.40
2022-10-16T08:33:52.228Z,15.20
2022-10-16T08:36:19.292Z,15.20
2022-10-16T08:38:58.045Z,15.10
2022-10-16T08:41:52.939Z,14.90
2022-10-16T08:44:47.934Z,15.10
2022-10-16T08:47:20.634Z,15.10
2022-10-16T08:50:02.489Z,15.20
2022-10-16T08:52:43.574Z,15.70
2022-10-16T08:55:35.506Z,15.70
2022-10-16T08:58:02.650Z,16.10
2022-10-16T09:00:30.993Z,16.30
2022-10-16T09:03:32.248Z,16.40
2022-10-16T09:06:36.138Z,16.20
2022-10-16T09:09:25.158Z,16.10
2022-10-16T09:12:04.536Z,16.30
2022-10-16T09:15:30.618Z,16.10
2022-10-16T09:18:32.745Z,17.10
2022-10-16T09:21:31.652Z,16.40
2022-10-16T09:24:01.576Z,16.20
2022-10-16T09:26:28.610Z,16.00
2022-10-16T09:28:55.788Z,16.20
2022-10-16T09:31:24.476Z,16.20
2022-10-16T09:33:59.921Z,16.30
2022-10-16T09:36:29.764Z,16.40
2022-10-16T09:39:09.622Z,16.30
2022-10-16T09:41:40.923Z,16.60
2022-10-16T09:44:22.843Z,16.90
2022-10-16T09:46:50.083Z,16.80
2022-10-16T09:49:27.958Z,16.60
2022-10-16T09:52:06.593Z,16.80
2022-10-16T09:54:33.680Z,17.10
2022-10-16T09:57:14.535Z,17.50
2022-10-16T09:59:56.560Z,17.20
2022-10-16T10:02:37.178Z,17.30
2022-10-16T10:05:07.280Z,17.20
2022-10-16T10:07:44.139Z,17.20
2022-10-16T10:10:25.768Z,17.30
2022-10-16T10:12:53.073Z,17.60
2022-10-16T10:15:22.775Z,17.50
2022-10-16T10:17:58.190Z,17.90
2022-10-16T10:20:30.540Z,18.20
2022-10-16T10:22:58.017Z,18.20
2022-10-16T10:26:22.098Z,18.30
2022-10-16T10:29:21.387Z,18.20
2022-10-16T10:32:05.396Z,18.10
2022-10-16T10:35:13.381Z,18.10
2022-10-16T10:38:11.584Z,18.60
2022-10-16T10:41:27.906Z,18.50
2022-10-16T10:44:31.612Z,18.80
2022-10-16T10:47:20.401Z,18.70
2022-10-16T10:50:12.179Z,18.60
2022-10-16T10:52:42.665Z,18.90
2022-10-16T10:55:40.889Z,19.10
2022-10-16T10:58:59.401Z,19.30
2022-10-16T11:01:56.548Z,19.40
2022-10-16T11:05:07.051Z,19.40
2022-10-16T11:07:46.768Z,20.70
2022-10-16T11:10:21.809Z,19.50
2022-10-16T11:12:58.353Z,19.60
2022-10-16T11:15:39.025Z,19.50
2022-10-16T11:18:14.545Z,19.60
2022-10-16T11:20:53.634Z,19.70
2022-10-16T11:23:54.272Z,19.90
2022-10-16T11:26:26.565Z,20.20
2022-10-16T11:28:56.890Z,21.00
2022-10-16T11:31:50.488Z,21.70
2022-10-16T11:34:49.170Z,21.70
2022-10-16T11:37:25.271Z,22.70
2022-10-16T11:39:55.668Z,22.60
2022-10-16T11:42:31.858Z,21.90
2022-10-16T11:45:08.122Z,22.70
2022-10-16T11:47:59.083Z,22.90
2022-10-16T11:50:36.255Z,22.60
2022-10-16T11:54:00.839Z,23.10
2022-10-16T11:56:29.370Z,23.80
2022-10-16T11:59:11.349Z,23.80
2022-10-16T12:02:36.634Z,24.00
2022-10-16T12:05:37.714Z,23.90
2022-10-16T12:08:14.326Z,23.20
2022-10-16T12:10:45.100Z,23.00
2022-10-16T12:13:39.332Z,23.10
2022-10-16T12:16:15.293Z,22.90
2022-10-16T12:18:46.680Z,22.50
2022-10-16T12:21:16.934Z,22.30
2022-10-16T12:23:53.241Z,22.00
2022-10-16T12:26:33.457Z,21.80
2022-10-16T12:29:23.238Z,21.90
2022-10-16T12:31:57.600Z,22.10
2022-10-16T12:34:43.075Z,21.80
2022-10-16T12:37:27.778Z,21.90
2022-10-16T12:39:56.912Z,21.80
2022-10-16T12:42:28.837Z,22.00
2022-10-16T12:44:56.722Z,22.00
2022-10-16T12:47:50.610Z,22.00
2022-10-16T12:50:39.488Z,21.60
2022-10-16T12:53:39.671Z,21.60
2022-10-16T12:56:50.410Z,21.80
2022-10-16T12:59:32.682Z,21.90
2022-10-16T13:02:28.916Z,22.00
2022-10-16T13:05:42.792Z,21.90
2022-10-16T13:08:39.175Z,21.90
2022-10-16T13:11:49.608Z,21.70
2022-10-16T13:15:02.724Z,20.90
2022-10-16T13:18:24.981Z,20.80
2022-10-16T13:21:19.042Z,21.20
2022-10-16T13:24:11.360Z,21.30
2022-10-16T13:27:10.338Z,21.30
2022-10-16T13:29:37.506Z,21.30
2022-10-16T13:32:13.864Z,21.10
2022-10-16T13:34:50.403Z,21.30
2022-10-16T13:37:23.962Z,20.90
2022-10-16T13:39:53.733Z,19.40
2022-10-16T13:42:28.439Z,21.00
2022-10-16T13:44:57.322Z,21.30
2022-10-16T13:47:31.024Z,21.30
2022-10-16T13:50:05.006Z,20.70
2022-10-16T13:52:32.724Z,21.00
2022-10-16T13:55:01.979Z,20.90
2022-10-16T13:57:30.094Z,21.10
2022-10-16T13:59:57.164Z,20.90
2022-10-16T14:02:33.287Z,21.00
2022-10-16T14:05:00.312Z,21.30
2022-10-16T14:07:34.106Z,21.20
2022-10-16T14:10:23.284Z,20.50
2022-10-16T14:13:03.601Z,21.20
2022-10-16T14:15:33.254Z,21.20
2022-10-16T14:18:00.945Z,21.50
2022-10-16T14:20:32.321Z,21.30
2022-10-16T14:23:17.783Z,21.50
2022-10-16T14:25:44.750Z,21.40
2022-10-16T14:28:14.243Z,21.40
2022-10-16T14:30:55.205Z,21.00
2022-10-16T14:33:30.559Z,20.90
2022-10-16T14:36:17.658Z,21.10
2022-10-16T14:39:07.643Z,20.80
2022-10-16T14:41:47.231Z,20.70
2022-10-16T14:44:14.951Z,20.90
2022-10-16T14:46:43.994Z,20.50
2022-10-16T14:49:10.862Z,20.40
2022-10-16T14:51:42.011Z,20.40
2022-10-16T14:54:18.578Z,20.40
2022-10-16T14:56:54.765Z,20.50
2022-10-16T14:59:37.850Z,20.30
2022-10-16T15:02:20.529Z,20.30
2022-10-16T15:04:48.256Z,20.30
2022-10-16T15:07:15.930Z,20.50
2022-10-16T15:09:48.031Z,20.40
2022-10-16T15:12:17.526Z,20.40
2022-10-16T15:14:44.807Z,20.60
2022-10-16T15:17:12.277Z,20.40
2022-10-16T15:19:39.418Z,20.40
2022-10-16T15:22:06.492Z,20.40
2022-10-16T15:24:34.085Z,20.10
2022-10-16T15:27:01.733Z,20.10
2022-10-16T15:29:29.233Z,20.20
2022-10-16T15:31:56.310Z,20.20
2022-10-16T15:34:23.292Z,20.30
2022-10-16T15:36:50.263Z,20.20
2022-10-16T15:39:20.214Z,20.10
2022-10-16T15:41:51.867Z,20.10
2022-10-16T15:44:19.507Z,20.10
2022-10-16T15:46:47.274Z,19.90
2022-10-16T15:49:14.763Z,19.80
2022-10-16T15:51:42.979Z,19.70
2022-10-16T15:54:10.714Z,19.50
2022-10-16T15:56:38.127Z,19.70
2022-10-16T15:59:06.406Z,19.60
2022-10-16T16:01:37.347Z,19.50
2022-10-16T16:04:10.950Z,19.30
2022-10-16T16:06:45.950Z,19.50
2022-10-16T16:09:14.653Z,19.30
2022-10-16T16:11:42.499Z,19.40
2022-10-16T16:14:14.330Z,19.40
2022-10-16T16:16:42.331Z,19.30
2022-10-16T16:19:11.734Z,19.40
2022-10-16T16:21:39.743Z,20.20
2022-10-16T16:24:08.953Z,19.40
2022-10-16T16:26:40.181Z,19.40
2022-10-16T16:29:08.005Z,19.40
2022-10-16T16:31:35.650Z,19.40
2022-10-16T16:34:03.589Z,19.40
2022-10-16T16:36:30.847Z,19.30
2022-10-16T16:38:59.060Z,19.40
2022-10-16T16:41:29.490Z,19.40
2022-10-16T16:43:56.968Z,19.10
2022-10-16T16:46:23.906Z,19.30
2022-10-16T16:48:52.672Z,19.30
2022-10-16T16:51:20.800Z,19.10
2022-10-16T16:53:51.100Z,19.20
2022-10-16T16:56:19.226Z,19.10
2022-10-16T16:58:48.097Z,19.10
2022-10-16T17:01:19.972Z,19.10
2022-10-16T17:03:50.204Z,19.10
2022-10-16T17:06:20.405Z,18.90
2022-10-16T17:08:49.779Z,19.00
2022-10-16T17:11:21.816Z,18.80
2022-10-16T17:13:53.890Z,18.90
2022-10-16T17:16:27.135Z,18.70
2022-10-16T17:18:54.543Z,18.80
2022-10-16T17:21:22.788Z,18.90
2022-10-16T17:23:53.345Z,18.80
2022-10-16T17:26:20.462Z,18.60
2022-10-16T17:28:55.381Z,18.80
2022-10-16T17:31:27.479Z,18.80
2022-10-16T17:33:54.706Z,18.80
2022-10-16T17:36:23.098Z,18.70
2022-10-16T17:38:50.388Z,18.60
2022-10-16T17:41:29.452Z,18.80
2022-10-16T17:43:56.604Z,18.90
2022-10-16T17:46:24.815Z,18.80
2022-10-16T17:48:55.718Z,18.70
2022-10-16T17:51:29.476Z,18.80
2022-10-16T17:53:59.807Z,18.60
2022-10-16T17:56:27.230Z,18.60
2022-10-16T17:59:00.286Z,18.10
2022-10-16T18:01:40.616Z,18.60
2022-10-16T18:04:12.900Z,18.50
2022-10-16T18:06:42.805Z,18.50
2022-10-16T18:09:12.036Z,18.50
2022-10-16T18:11:39.058Z,18.40
2022-10-16T18:14:06.533Z,18.50
2022-10-16T18:16:36.007Z,18.50
2022-10-16T18:19:03.471Z,18.30
2022-10-16T18:21:30.780Z,18.20
2022-10-16T18:23:59.718Z,18.30
2022-10-16T18:26:27.099Z,18.20
2022-10-16T18:28:57.071Z,18.20
2022-10-16T18:31:26.334Z,18.10
2022-10-16T18:33:54.435Z,18.20
2022-10-16T18:36:32.457Z,18.20
2022-10-16T18:39:03.423Z,18.20
2022-10-16T18:41:32.644Z,18.00
2022-10-16T18:43:59.608Z,18.10
2022-10-16T18:46:27.048Z,18.00
2022-10-16T18:48:56.478Z,17.30
2022-10-16T18:51:33.770Z,17.90
2022-10-16T18:54:04.254Z,18.10
2022-10-16T18:56:32.305Z,17.70
2022-10-16T18:59:01.410Z,17.80
2022-10-16T19:01:30.807Z,18.00
2022-10-16T19:04:11.407Z,19.10
2022-10-16T19:06:49.464Z,17.90
2022-10-16T19:09:18.847Z,17.90
2022-10-16T19:11:46.133Z,18.00
2022-10-16T19:14:15.188Z,17.70
2022-10-16T19:16:43.084Z,17.90
2022-10-16T19:19:15.080Z,17.40
2022-10-16T19:21:43.377Z,17.60
2022-10-16T19:24:14.407Z,17.80
2022-10-16T19:26:42.251Z,17.70
2022-10-16T19:29:10.683Z,17.70
2022-10-16T19:31:38.029Z,18.20
2022-10-16T19:34:07.594Z,17.80
2022-10-16T19:36:37.060Z,17.70
2022-10-16T19:39:12.752Z,17.60
2022-10-16T19:41:39.929Z,17.60
2022-10-16T19:44:10.928Z,17.70
2022-10-16T19:46:38.328Z,17.80
2022-10-16T19:49:09.947Z,17.80
2022-10-16T19:51:38.211Z,17.50
2022-10-16T19:54:11.434Z,17.90
2022-10-16T19:56:38.871Z,17.40
2022-10-16T19:59:08.694Z,17.60
2022-10-16T20:01:35.867Z,17.70
2022-10-16T20:04:05.160Z,17.60
2022-10-16T20:06:32.153Z,17.50
2022-10-16T20:08:59.083Z,17.50
2022-10-16T20:11:32.976Z,17.50
2022-10-16T20:14:00.674Z,17.50
2022-10-16T20:16:29.330Z,17.40
2022-10-16T20:18:57.246Z,17.40
2022-10-16T20:21:30.870Z,17.20
2022-10-16T20:24:00.537Z,17.40
2022-10-16T20:26:28.358Z,17.60
2022-10-16T20:31:27.066Z,17.40
2022-10-16T20:33:56.768Z,17.30
2022-10-16T20:36:26.053Z,17.50
2022-10-16T20:38:54.117Z,17.50
2022-10-16T20:41:23.829Z,17.50
2022-10-16T20:43:52.771Z,17.40
2022-10-16T20:46:25.834Z,17.50
2022-10-16T20:49:06.263Z,17.40
2022-10-16T20:51:38.947Z,17.80
2022-10-16T20:54:06.929Z,17.40
2022-10-16T20:56:36.713Z,17.40
2022-10-16T20:59:10.746Z,17.60
2022-10-16T21:01:38.088Z,17.40
2022-10-16T21:04:08.365Z,17.40
2022-10-16T21:06:44.192Z,17.30
2022-10-16T21:09:11.298Z,17.30
2022-10-16T21:11:38.826Z,17.20
2022-10-16T21:14:08.705Z,17.80
2022-10-16T21:16:36.138Z,17.40
2022-10-16T21:19:03.825Z,17.40
2022-10-16T21:21:34.325Z,17.30
2022-10-16T21:24:01.739Z,17.30
2022-10-16T21:26:30.508Z,17.20
2022-10-16T21:29:07.248Z,17.20
2022-10-16T21:31:35.218Z,17.40
2022-10-16T21:34:02.781Z,17.00
2022-10-16T21:36:37.348Z,17.60
2022-10-16T21:39:16.703Z,17.30
2022-10-16T21:41:47.619Z,17.20
2022-10-16T21:44:14.747Z,17.10
2022-10-16T21:46:44.120Z,17.10
2022-10-16T21:49:15.209Z,17.10
2022-10-16T21:51:46.521Z,16.90
2022-10-16T21:54:17.897Z,16.90
2022-10-16T21:56:45.310Z,17.10
2022-10-16T21:59:14.107Z,16.90
2022-10-16T22:01:41.750Z,17.00
2022-10-16T22:04:17.561Z,16.90
2022-10-16T22:06:44.905Z,16.70
2022-10-16T22:09:14.411Z,16.80
2022-10-16T22:11:44.664Z,17.00
2022-10-16T22:14:18.024Z,16.80
2022-10-16T22:16:46.319Z,16.90
2022-10-16T22:19:15.348Z,17.00
2022-10-16T22:21:43.918Z,16.90
2022-10-16T22:24:10.972Z,16.90
2022-10-16T22:26:39.317Z,16.80
2022-10-16T22:29:07.335Z,16.80
2022-10-16T22:31:35.086Z,16.80
2022-10-16T22:34:04.075Z,16.70
2022-10-16T22:36:32.026Z,16.80
2022-10-16T22:38:59.636Z,16.70
2022-10-16T22:41:26.638Z,16.20
2022-10-16T22:43:54.132Z,16.60
2022-10-16T22:46:29.121Z,16.90
2022-10-16T22:48:57.219Z,16.70
2022-10-16T22:51:26.545Z,16.40
2022-10-16T22:53:53.453Z,16.80
2022-10-16T22:56:22.055Z,16.70
2022-10-16T22:58:49.551Z,16.60
2022-10-16T23:01:25.857Z,16.60
2022-10-16T23:03:53.016Z,16.50
2022-10-16T23:06:20.001Z,17.20
2022-10-16T23:08:54.753Z,16.50
2022-10-16T23:11:22.030Z,16.50
2022-10-16T23:13:49.277Z,16.40
2022-10-16T23:16:19.146Z,16.40
2022-10-16T23:18:46.775Z,16.50
2022-10-16T23:21:23.532Z,16.40
2022-10-16T23:23:53.048Z,16.30
2022-10-16T23:26:25.199Z,16.40
2022-10-16T23:28:52.414Z,16.40
2022-10-16T23:31:19.829Z,16.40
2022-10-16T23:33:46.805Z,16.10
2022-10-16T23:36:18.115Z,16.20
2022-10-16T23:38:45.182Z,16.40
2022-10-16T23:41:12.906Z,16.40
2022-10-16T23:43:40.506Z,16.40
2022-10-16T23:46:09.808Z,16.20
2022-10-16T23:48:39.313Z,16.30
2022-10-16T23:51:07.886Z,16.30
2022-10-16T23:53:35.365Z,16.20
2022-10-16T23:56:02.558Z,16.10
2022-10-16T23:58:29.606Z,16.20
